X  Close Metar Aviation Weather Data     YPAD Adelaide International Airport
Temperature
12°C Temperature
4°C Dewpoint
58% Humidity



Wind
11 KM/H
7 MPH
3 M/S
6 KTS



220°
SW
Current Conditions

Partly Cloudy Partly Cloudy
Pressure 1023.92 (hPa) - 30.24 (inHg)
Visibility 6.2 (mile) - 10 (km)
Airport
Airport-code YPAD

Location: Adelaide International Airport
Distance: 20 (km)

Metar:
YPAD 261100Z 22006KT 9999 FEW036 BKN048 12/04 Q1024 NOSIG

Time: 26-09-2020 8:30 pm ACST